Peruwelz, Belgium
Current Conditions -  °F | °C
As of 11:07 AM on Thursday 29 Jan 2015 (Local Time) from EBCV Reporting Station
Broken Clouds Broken Clouds  
Wind Chill: 30°   Ceiling: 1700
Heat Index: 39°   Visibility: 6mi
Dew Point: 34°   Wind: 20mph
Humidity: 81%   Direction: 220°SW
Pressure: 29.26"   Gusts: NA
Location:  50.51°N, 3.59°E
Report Text: EBCV 291007Z AUTO 22017KT 9999 SCT013/// BKN017/// BKN100/// 04/01 Q0991 GRN
Loading
Personal Weather Stations






























Interactive Weather Map New forecast layout! Learn more

10-Day Weather Forecast

Advertisements
Track Severe Weather on mobile